Time;durP1;ratioP1;P1;durP2;ratioP2;P2;SDS_P1;SDS_P2;PMS_P1;PMS_P2;Temp;Humidity;BMP_temperature;BMP_pressure;BME280_temperature;BME280_humidity;BME280_pressure;Samples;Min_cycle;Max_cycle;Signal;HPM_P1;HPM_P2
2022/08/23 00:01:11;;;;;;;21.50;18.57;;;;;;;17.77;100.00;92363.44;5029901;28;20177;-70
2022/08/23 00:03:37;;;;;;;22.13;19.50;;;;;;;17.86;100.00;92358.81;5029447;28;20175;-71
2022/08/23 00:06:02;;;;;;;25.73;20.07;;;;;;;17.83;100.00;92363.97;5029849;28;20235;-71
2022/08/23 00:08:29;;;;;;;24.53;20.03;;;;;;;17.92;100.00;92380.47;5029772;28;20228;-71
2022/08/23 00:10:55;;;;;;;25.07;19.60;;;;;;;17.90;100.00;92374.78;5030080;28;20581;-70
2022/08/23 00:13:21;;;;;;;24.40;20.80;;;;;;;17.88;100.00;92355.84;5029893;28;20246;-71
2022/08/23 00:15:46;;;;;;;24.77;20.10;;;;;;;18.12;100.00;92383.03;5029321;28;20224;-71
2022/08/23 00:18:13;;;;;;;26.83;20.53;;;;;;;18.11;100.00;92391.28;5029754;28;20212;-71
2022/08/23 00:20:39;;;;;;;23.20;20.63;;;;;;;18.11;100.00;92393.94;5037356;28;20215;-72
2022/08/23 00:23:04;;;;;;;25.40;18.50;;;;;;;18.20;100.00;92384.03;5050431;28;20239;-71
2022/08/23 00:25:30;;;;;;;24.87;18.90;;;;;;;18.16;100.00;92362.03;5048547;28;20223;-71
2022/08/23 00:27:55;;;;;;;20.17;17.93;;;;;;;18.15;100.00;92376.34;5050104;28;20198;-71
2022/08/23 00:30:20;;;;;;;23.73;18.47;;;;;;;18.23;100.00;92378.09;5044297;28;20307;-71
2022/08/23 00:32:46;;;;;;;23.57;18.00;;;;;;;18.18;100.00;92381.72;5034126;28;20177;-71
2022/08/23 00:35:13;;;;;;;23.30;18.07;;;;;;;18.23;100.00;92380.72;5037368;28;20225;-71
2022/08/23 00:37:39;;;;;;;19.90;17.73;;;;;;;18.16;100.00;92368.09;5042061;28;20181;-69
2022/08/23 00:40:07;;;;;;;21.43;17.83;;;;;;;18.30;100.00;92375.69;5033006;28;20226;-72
2022/08/23 00:48:37;;;;;;;22.20;18.60;;;;;;;18.14;100.00;92354.44;5013666;28;20259;-71
2022/08/23 00:51:13;;;;;;;20.70;18.20;;;;;;;18.11;100.00;92370.16;5036755;28;20187;-71
2022/08/23 00:53:43;;;;;;;20.50;18.23;;;;;;;18.10;100.00;92373.91;5053010;28;20180;-71
2022/08/23 00:56:11;;;;;;;20.83;16.80;;;;;;;18.04;100.00;92375.97;5052488;28;20185;-72
2022/08/23 00:58:37;;;;;;;23.50;18.07;;;;;;;18.22;100.00;92361.47;5052500;28;20212;-73
2022/08/23 01:01:05;;;;;;;20.87;18.33;;;;;;;18.32;100.00;92382.16;5040926;28;20207;-71
2022/08/23 01:03:33;;;;;;;18.83;16.33;;;;;;;18.25;100.00;92392.53;5032902;28;20261;-70
2022/08/23 01:06:14;;;;;;;19.57;17.53;;;;;;;18.17;100.00;92384.69;5032923;28;20194;-71
2022/08/23 01:08:44;;;;;;;19.67;17.23;;;;;;;18.01;100.00;92376.66;5032597;28;20246;-71
2022/08/23 01:11:19;;;;;;;20.40;18.27;;;;;;;17.84;100.00;92366.28;5032901;28;20197;-71
2022/08/23 01:13:51;;;;;;;20.80;17.30;;;;;;;17.70;100.00;92357.91;5013918;28;21133;-71
2022/08/23 01:16:44;;;;;;;18.33;15.97;;;;;;;17.81;100.00;92382.00;5026750;28;20187;-71
2022/08/23 01:19:17;;;;;;;22.37;17.57;;;;;;;17.77;100.00;92379.28;5032580;28;20328;-72
2022/08/23 01:21:50;;;;;;;19.73;16.97;;;;;;;17.87;100.00;92391.28;5049778;28;20188;-71
2022/08/23 01:24:16;;;;;;;18.13;15.93;;;;;;;17.92;100.00;92381.25;5052843;28;20221;-71
2022/08/23 01:26:42;;;;;;;20.87;17.37;;;;;;;17.98;100.00;92395.78;5051813;28;20647;-71
2022/08/23 01:29:07;;;;;;;18.83;16.73;;;;;;;17.92;100.00;92377.84;5052204;28;20305;-71
2022/08/23 01:31:34;;;;;;;20.97;17.93;;;;;;;18.04;100.00;92391.09;5036141;28;20829;-71
2022/08/23 01:34:05;;;;;;;18.20;16.30;;;;;;;18.01;100.00;92391.75;5032391;28;20235;-71
2022/08/23 01:36:31;;;;;;;17.97;16.03;;;;;;;17.84;100.00;92370.81;5045304;28;20188;-71
2022/08/23 01:38:56;;;;;;;17.50;15.83;;;;;;;18.03;100.00;92378.97;5032069;28;20239;-73
2022/08/23 01:41:23;;;;;;;22.97;17.57;;;;;;;18.10;100.00;92387.13;5046256;28;20196;-71
2022/08/23 01:43:49;;;;;;;19.13;16.10;;;;;;;18.10;100.00;92385.22;5051899;28;20223;-71
2022/08/23 01:46:16;;;;;;;21.17;17.30;;;;;;;18.19;100.00;92390.44;5038374;28;20211;-71
2022/08/23 01:48:44;;;;;;;19.57;17.57;;;;;;;18.36;100.00;92398.91;5031824;28;20204;-71
2022/08/23 01:51:10;;;;;;;22.00;17.60;;;;;;;18.18;100.00;92381.72;5032063;28;20930;-71
2022/08/23 01:53:35;;;;;;;19.33;17.27;;;;;;;18.36;100.00;92398.13;5032319;28;20253;-71
2022/08/23 01:56:01;;;;;;;21.40;17.00;;;;;;;18.51;100.00;92400.13;5043081;28;20718;-71
2022/08/23 01:58:29;;;;;;;20.13;16.43;;;;;;;18.53;100.00;92395.28;5051745;28;20215;-71
2022/08/23 02:00:54;;;;;;;18.60;16.73;;;;;;;18.37;100.00;92378.53;5051250;28;20669;-72
2022/08/23 02:03:20;;;;;;;19.07;17.13;;;;;;;18.41;100.00;92392.66;5036738;28;20188;-71
2022/08/23 02:05:46;;;;;;;17.37;15.63;;;;;;;18.21;100.00;92359.91;5031624;28;20243;-71
2022/08/23 02:10:56;;;;;;;18.80;16.90;;;;;;;18.29;100.00;92380.19;5031279;28;20214;-71
2022/08/23 02:13:21;;;;;;;19.90;16.67;;;;;;;18.29;100.00;92398.69;5031730;28;20175;-70
2022/08/23 02:15:50;;;;;;;18.07;16.20;;;;;;;18.36;100.00;92385.69;5030973;28;20227;-71
2022/08/23 02:18:18;;;;;;;17.90;16.03;;;;;;;18.44;99.85;92384.06;5031760;28;20246;-71
2022/08/23 02:20:45;;;;;;;18.23;16.20;;;;;;;18.50;99.11;92382.75;5039818;28;20226;-72
2022/08/23 02:23:11;;;;;;;17.00;15.33;;;;;;;18.60;98.56;92385.69;5052022;28;20186;-70
2022/08/23 02:25:36;;;;;;;17.63;15.93;;;;;;;18.55;97.03;92374.59;5042359;28;20231;-71
2022/08/23 02:28:04;;;;;;;15.83;14.23;;;;;;;18.56;94.66;92378.75;5031770;28;20179;-73
2022/08/23 02:30:29;;;;;;;15.70;14.30;;;;;;;18.59;93.55;92380.75;5030978;28;20226;-71
2022/08/23 02:32:55;;;;;;;15.40;13.70;;;;;;;18.40;93.08;92346.94;5031512;28;20187;-71
2022/08/23 02:35:21;;;;;;;14.17;12.97;;;;;;;18.59;91.79;92364.88;5030895;28;20944;-71
2022/08/23 02:37:46;;;;;;;15.17;13.80;;;;;;;18.65;91.79;92371.47;5031264;28;20965;-72
2022/08/23 02:40:12;;;;;;;14.40;13.07;;;;;;;18.51;91.12;92341.97;5030735;28;20220;-71
2022/08/23 02:42:37;;;;;;;14.33;13.07;;;;;;;18.60;90.85;92342.63;5031434;28;20180;-72
2022/08/23 02:45:03;;;;;;;15.33;13.87;;;;;;;18.69;90.27;92349.31;5030815;28;20765;-71
2022/08/23 02:47:29;;;;;;;14.87;13.37;;;;;;;18.81;89.47;92359.13;5031287;28;20184;-71
2022/08/23 02:49:54;;;;;;;15.17;13.80;;;;;;;18.90;88.35;92371.09;5032507;28;20240;-71
2022/08/23 02:52:19;;;;;;;14.70;13.40;;;;;;;18.97;88.09;92373.94;5050608;28;20191;-71
2022/08/23 02:54:45;;;;;;;14.77;13.47;;;;;;;18.93;87.10;92359.06;5049024;28;20289;-72
2022/08/23 02:57:10;;;;;;;13.33;12.17;;;;;;;18.87;87.97;92355.13;5031452;28;20899;-72
2022/08/23 02:59:36;;;;;;;13.50;12.37;;;;;;;18.96;87.87;92368.97;5030400;28;20243;-71
2022/08/23 03:02:01;;;;;;;13.67;12.37;;;;;;;18.74;90.69;92366.84;5049835;28;20206;-71
2022/08/23 03:04:27;;;;;;;14.80;13.47;;;;;;;18.79;89.26;92367.38;5050447;28;20259;-72
2022/08/23 03:06:52;;;;;;;12.60;11.70;;;;;;;18.81;87.05;92367.03;5031495;28;20236;-71
2022/08/23 03:09:18;;;;;;;14.13;12.73;;;;;;;18.71;87.19;92346.34;5030686;28;20237;-71
2022/08/23 03:11:46;;;;;;;13.57;12.47;;;;;;;18.88;87.07;92354.78;5027910;28;20188;-71
2022/08/23 03:14:12;;;;;;;13.57;11.87;;;;;;;18.89;86.04;92347.63;5011021;28;20225;-71
2022/08/23 03:16:38;;;;;;;13.07;12.07;;;;;;;18.93;85.88;92353.78;5027382;28;20180;-71
2022/08/23 03:19:03;;;;;;;13.73;12.47;;;;;;;18.88;85.53;92343.44;5030610;28;20234;-71
2022/08/23 03:21:28;;;;;;;12.40;11.50;;;;;;;19.00;85.34;92354.75;5030514;28;20227;-71
2022/08/23 03:23:54;;;;;;;12.63;11.67;;;;;;;18.96;85.07;92345.16;5030611;28;21024;-70
2022/08/23 03:26:20;;;;;;;12.57;10.77;;;;;;;18.99;84.75;92344.50;5030684;28;20188;-71
2022/08/23 03:28:46;;;;;;;12.30;11.23;;;;;;;19.07;83.23;92352.31;5030580;28;20237;-71
2022/08/23 03:31:13;;;;;;;12.23;11.33;;;;;;;19.13;82.68;92358.91;5042992;28;20181;-71
2022/08/23 03:33:39;;;;;;;12.23;11.33;;;;;;;19.03;82.66;92342.75;5049986;28;20207;-71
2022/08/23 03:36:07;;;;;;;11.67;10.57;;;;;;;19.11;81.72;92352.41;5038005;28;20234;-71
2022/08/23 03:38:33;;;;;;;9.80;9.20;;;;;;;18.91;79.24;92340.88;5029867;28;20205;-71
2022/08/23 03:41:00;;;;;;;9.70;9.17;;;;;;;19.04;78.69;92368.09;5030388;28;20224;-71
2022/08/23 03:43:25;;;;;;;10.20;9.50;;;;;;;18.95;78.72;92356.88;5029840;28;20210;-72
2022/08/23 03:45:51;;;;;;;11.50;10.50;;;;;;;19.04;79.82;92370.72;5029734;28;20220;-72
2022/08/23 03:48:16;;;;;;;10.30;9.63;;;;;;;19.05;80.00;92382.88;5030552;28;20184;-71
2022/08/23 03:50:42;;;;;;;11.17;10.20;;;;;;;18.97;81.79;92378.47;5029605;28;20285;-71
2022/08/23 03:53:07;;;;;;;10.57;9.87;;;;;;;19.05;84.24;92404.03;5030427;28;20189;-71
2022/08/23 03:55:33;;;;;;;12.80;11.67;;;;;;;18.79;85.50;92401.00;5029521;28;20770;-71
2022/08/23 03:57:58;;;;;;;12.47;11.33;;;;;;;18.79;85.69;92399.13;5030268;28;20263;-70
2022/08/23 04:00:24;;;;;;;11.50;10.60;;;;;;;18.76;85.28;92409.59;5029336;28;20227;-70
2022/08/23 04:02:49;;;;;;;11.47;10.67;;;;;;;18.88;84.14;92412.22;5030173;28;20212;-71
2022/08/23 04:05:15;;;;;;;10.90;10.00;;;;;;;18.83;81.42;92404.53;5030441;28;20224;-70
2022/08/23 04:07:40;;;;;;;10.90;9.97;;;;;;;19.11;79.08;92413.28;5034181;28;20236;-71
2022/08/23 04:10:08;;;;;;;10.43;9.53;;;;;;;19.05;77.07;92409.34;5033516;28;20831;-71
2022/08/23 04:12:34;;;;;;;11.77;10.80;;;;;;;19.15;77.62;92424.72;5033969;28;20187;-71
2022/08/23 04:14:59;;;;;;;9.73;9.10;;;;;;;19.35;76.33;92429.13;5033593;28;20228;-71
2022/08/23 04:17:25;;;;;;;10.27;9.67;;;;;;;19.12;78.24;92404.22;5034093;28;20184;-71
2022/08/23 04:19:50;;;;;;;11.90;11.00;;;;;;;19.09;80.28;92436.66;5033262;28;20232;-70
2022/08/23 04:22:17;;;;;;;11.23;10.43;;;;;;;19.11;81.63;92442.41;5034108;28;20211;-71
2022/08/23 04:24:44;;;;;;;12.03;11.13;;;;;;;19.06;83.13;92447.91;5034097;28;20225;-72
2022/08/23 04:27:11;;;;;;;11.83;10.83;;;;;;;18.64;87.17;92446.63;5053998;28;20184;-71
2022/08/23 04:29:37;;;;;;;13.57;12.37;;;;;;;18.63;88.54;92447.75;5052651;28;20238;-71
2022/08/23 04:32:04;;;;;;;14.63;13.20;;;;;;;18.70;89.16;92453.25;5033844;28;20196;-71
2022/08/23 04:34:31;;;;;;;13.50;12.30;;;;;;;18.54;89.41;92421.41;5033283;28;20225;-71
2022/08/23 04:36:56;;;;;;;13.20;12.00;;;;;;;18.77;89.99;92450.81;5033410;28;20188;-71
2022/08/23 04:39:22;;;;;;;15.73;13.47;;;;;;;18.46;91.94;92455.91;5033254;28;20249;-70
2022/08/23 04:44:31;;;;;;;15.33;13.90;;;;;;;18.52;92.02;92433.41;5033054;28;20906;-71
2022/08/23 04:46:56;;;;;;;15.50;14.03;;;;;;;18.38;91.57;92394.09;5043006;28;20184;-72
2022/08/23 04:49:22;;;;;;;14.97;13.47;;;;;;;18.81;91.95;92455.13;5033186;28;20227;-71
2022/08/23 04:51:48;;;;;;;16.33;14.20;;;;;;;18.73;91.51;92428.78;5033031;28;20216;-73
2022/08/23 04:54:13;;;;;;;16.40;14.87;;;;;;;18.89;91.36;92442.88;5033282;28;20223;-71
2022/08/23 04:56:39;;;;;;;15.73;14.17;;;;;;;19.10;90.65;92449.56;5049643;28;20230;-71
2022/08/23 04:59:05;;;;;;;15.90;14.30;;;;;;;19.12;90.72;92451.88;5052773;28;20224;-71
2022/08/23 05:01:30;;;;;;;17.23;15.63;;;;;;;19.14;90.56;92465.53;5037064;28;20188;-71
2022/08/23 05:03:55;;;;;;;19.60;16.03;;;;;;;19.21;90.22;92468.38;5033127;28;20233;-70
2022/08/23 05:06:22;;;;;;;20.97;15.50;;;;;;;19.18;90.01;92467.19;5033000;28;20208;-70
2022/08/23 05:08:47;;;;;;;18.97;15.93;;;;;;;19.31;88.99;92456.59;5032690;28;20233;-70
2022/08/23 05:11:13;;;;;;;18.47;16.57;;;;;;;19.51;87.58;92477.63;5032906;28;20293;-71
2022/08/23 05:13:38;;;;;;;19.97;17.57;;;;;;;19.56;87.92;92487.19;5014644;28;20189;-70
2022/08/23 05:16:06;;;;;;;22.97;16.97;;;;;;;19.41;89.07;92495.84;5036479;28;20184;-71
2022/08/23 05:18:32;;;;;;;25.57;18.00;;;;;;;19.32;90.34;92497.84;5052255;28;20208;-70
2022/08/23 05:20:58;;;;;;;19.40;17.27;;;;;;;19.41;90.24;92501.91;5052131;28;20180;-69
2022/08/23 05:23:24;;;;;;;19.30;16.87;;;;;;;19.14;90.19;92476.88;5052446;28;20184;-74
2022/08/23 05:25:51;;;;;;;19.73;16.13;;;;;;;19.50;90.32;92509.72;5052091;28;20193;-71
2022/08/23 05:28:23;;;;;;;19.40;16.27;;;;;;;19.69;89.18;92508.00;5052756;28;20186;-71
2022/08/23 05:31:02;;;;;;;20.67;15.77;;;;;;;20.11;87.01;92506.50;5042168;28;20218;-70
2022/08/23 05:33:28;;;;;;;18.80;16.83;;;;;;;20.10;84.93;92491.72;5032402;28;20189;-71
2022/08/23 05:35:54;;;;;;;20.63;16.70;;;;;;;19.24;88.85;92493.44;5032145;28;20217;-71
2022/08/23 05:38:20;;;;;;;18.17;16.30;;;;;;;19.24;90.56;92490.78;5031556;28;20683;-71
2022/08/23 05:40:53;;;;;;;20.30;16.75;;;;;;;19.47;89.40;92492.63;5040659;28;20222;-70
2022/08/23 05:43:19;;;;;;;18.17;16.27;;;;;;;19.61;88.41;92495.66;5051988;28;20241;-71
2022/08/23 05:45:45;;;;;;;18.37;15.30;;;;;;;20.09;86.37;92500.78;5041953;28;20221;-72
2022/08/23 05:48:12;;;;;;;19.25;16.38;;;;;;;20.02;86.35;92495.28;5032324;28;20197;-71
2022/08/23 05:50:38;;;;;;;17.52;15.77;;;;;;;20.27;85.36;92511.88;5039433;28;20243;-71
2022/08/23 05:53:05;;;;;;;17.08;15.30;;;;;;;20.44;83.77;92491.13;5052207;28;20277;-70
2022/08/23 05:55:30;;;;;;;18.50;16.47;;;;;;;20.29;85.67;92510.44;5051210;28;20229;-70
2022/08/23 05:57:56;;;;;;;17.38;15.40;;;;;;;20.94;81.70;92516.19;5051879;28;20189;-71
2022/08/23 06:00:21;;;;;;;18.27;15.52;;;;;;;20.26;83.10;92515.63;5050693;28;20324;-70
2022/08/23 06:02:48;;;;;;;17.30;15.60;;;;;;;20.73;80.61;92498.63;5051920;28;20178;-71
2022/08/23 06:05:14;;;;;;;17.88;16.08;;;;;;;23.19;72.75;92513.44;5046005;28;20210;-70
2022/08/23 06:07:40;;;;;;;19.10;15.75;;;;;;;26.59;59.04;92532.63;5031646;28;20285;-71
2022/08/23 06:10:07;;;;;;;21.65;16.35;;;;;;;27.20;55.20;92528.13;5035036;28;20217;-70
2022/08/23 06:12:32;;;;;;;16.10;14.43;;;;;;;26.83;56.44;92527.72;5042425;28;20178;-70
2022/08/23 06:14:58;;;;;;;15.73;14.18;;;;;;;26.11;58.65;92528.63;5031108;28;20234;-72
2022/08/23 06:17:24;;;;;;;17.33;15.57;;;;;;;24.21;65.79;92528.16;5031474;28;20233;-70
2022/08/23 06:19:49;;;;;;;15.30;13.88;;;;;;;22.91;69.13;92481.03;5030828;28;20391;-71
2022/08/23 06:22:15;;;;;;;15.80;14.40;;;;;;;22.83;71.53;92527.31;5031821;28;20189;-70
2022/08/23 06:24:40;;;;;;;17.65;15.85;;;;;;;23.00;70.47;92527.59;5031066;28;20217;-71
2022/08/23 06:27:06;;;;;;;16.98;15.23;;;;;;;22.05;74.73;92528.53;5031170;28;20174;-71
2022/08/23 06:29:31;;;;;;;18.45;16.65;;;;;;;22.47;72.43;92496.63;5030403;28;20224;-70
2022/08/23 06:31:57;;;;;;;17.25;15.55;;;;;;;21.44;77.51;92524.19;5031075;28;20208;-70
2022/08/23 06:34:33;;;;;;;18.73;16.50;;;;;;;21.34;76.08;92506.16;5030493;28;20257;-71
2022/08/23 06:37:05;;;;;;;18.98;17.05;;;;;;;21.30;78.31;92534.50;5031281;28;20185;-71
2022/08/23 06:39:31;;;;;;;18.67;16.88;;;;;;;22.17;75.48;92527.63;5030564;28;20251;-71
2022/08/23 06:42:08;;;;;;;21.35;17.48;;;;;;;21.83;74.89;92552.38;5030896;28;20192;-70
2022/08/23 06:44:34;;;;;;;19.50;17.15;;;;;;;22.06;75.88;92553.22;5030225;28;20223;-71
2022/08/23 06:47:00;;;;;;;18.70;16.35;;;;;;;22.26;74.69;92562.75;5030791;28;20218;-71
2022/08/23 06:49:26;;;;;;;19.48;17.40;;;;;;;22.35;75.49;92527.97;5030494;28;20240;-70
2022/08/23 06:51:55;;;;;;;19.77;17.63;;;;;;;22.14;74.67;92557.56;5049007;28;20195;-71
2022/08/23 06:54:23;;;;;;;22.13;16.48;;;;;;;22.39;74.60;92558.81;5050786;28;20233;-71
2022/08/23 06:56:49;;;;;;;22.25;16.98;;;;;;;22.56;72.78;92558.41;5050216;28;20193;-71
2022/08/23 06:59:16;;;;;;;17.90;16.08;;;;;;;22.50;72.69;92546.47;5050542;28;20762;-70
2022/08/23 07:01:44;;;;;;;18.38;16.50;;;;;;;22.42;73.56;92558.13;5049709;28;20182;-71
2022/08/23 07:04:10;;;;;;;20.42;16.67;;;;;;;22.31;73.68;92565.13;5050261;28;21013;-70
2022/08/23 07:06:36;;;;;;;20.08;17.58;;;;;;;22.10;74.94;92559.41;5033382;28;20188;-71
2022/08/23 07:09:04;;;;;;;23.38;17.40;;;;;;;22.48;73.34;92562.03;5030551;28;20309;-71
2022/08/23 07:11:31;;;;;;;18.52;16.48;;;;;;;22.13;73.35;92543.50;5030399;28;20186;-71
2022/08/23 07:14:02;;;;;;;23.55;18.23;;;;;;;21.82;74.67;92548.19;5030055;28;20261;-71
2022/08/23 07:16:33;;;;;;;18.20;16.35;;;;;;;21.67;74.96;92555.06;5030072;28;20185;-71
2022/08/23 07:18:59;;;;;;;19.83;16.05;;;;;;;21.02;78.58;92545.25;5030152;28;20225;-72
2022/08/23 07:21:24;;;;;;;18.67;16.17;;;;;;;21.59;76.60;92544.63;5030294;28;20206;-72
2022/08/23 07:23:50;;;;;;;18.92;16.60;;;;;;;22.25;74.12;92555.91;5030546;28;20246;-70
2022/08/23 07:26:17;;;;;;;17.92;15.98;;;;;;;22.03;74.37;92549.41;5030065;28;20246;-71
2022/08/23 07:28:43;;;;;;;18.05;16.02;;;;;;;22.32;72.67;92550.69;5030087;28;20208;-71
2022/08/23 07:31:26;;;;;;;18.50;16.13;;;;;;;22.23;73.08;92568.75;5042508;28;20650;-71
2022/08/23 07:33:53;;;;;;;17.95;14.90;;;;;;;22.31;71.26;92554.47;5049650;28;20240;-71
2022/08/23 07:36:21;;;;;;;17.60;15.77;;;;;;;22.29;71.56;92569.28;5048183;28;20196;-71
2022/08/23 07:38:47;;;;;;;16.98;15.32;;;;;;;21.82;73.26;92553.50;5049706;28;20236;-71
2022/08/23 07:41:13;;;;;;;20.38;15.80;;;;;;;21.84;74.27;92561.88;5031329;28;20235;-70
2022/08/23 07:43:40;;;;;;;20.23;16.67;;;;;;;21.52;75.93;92550.56;5029698;28;20176;-71
2022/08/23 07:46:06;;;;;;;21.38;18.27;;;;;;;21.07;77.51;92544.22;5029800;28;20214;-71
2022/08/23 07:48:32;;;;;;;20.38;17.45;;;;;;;21.47;77.76;92571.31;5029422;28;20955;-71
2022/08/23 07:51:01;;;;;;;18.15;16.25;;;;;;;22.04;75.75;92576.72;5030076;28;20194;-71
2022/08/23 07:53:27;;;;;;;20.55;16.40;;;;;;;22.54;73.22;92568.63;5029949;28;20205;-70
2022/08/23 07:55:53;;;;;;;21.20;16.33;;;;;;;22.61;71.96;92574.09;5030067;28;20473;-71
2022/08/23 07:58:19;;;;;;;18.35;16.45;;;;;;;22.67;72.84;92579.88;5030271;28;20213;-71
2022/08/23 08:00:45;;;;;;;18.63;16.63;;;;;;;22.33;73.00;92552.25;5029364;28;20285;-71
2022/08/23 08:03:13;;;;;;;19.77;16.63;;;;;;;22.78;71.76;92581.63;5030329;28;20179;-71
2022/08/23 08:05:39;;;;;;;18.30;16.10;;;;;;;22.75;72.86;92581.56;5037591;28;20220;-71
2022/08/23 08:08:06;;;;;;;18.80;16.27;;;;;;;22.72;71.50;92559.09;5049741;28;20235;-70
2022/08/23 08:10:34;;;;;;;18.73;16.75;;;;;;;22.62;73.20;92580.94;5041043;28;20244;-72
2022/08/23 08:12:59;;;;;;;17.23;15.48;;;;;;;22.59;72.03;92586.97;5030598;28;20181;-70
2022/08/23 08:15:25;;;;;;;18.45;16.42;;;;;;;22.28;73.08;92587.09;5035658;28;20224;-70
2022/08/23 08:17:50;;;;;;;18.70;16.58;;;;;;;22.93;71.43;92590.59;5049839;28;20268;-70
2022/08/23 08:20:20;;;;;;;18.27;16.55;;;;;;;23.03;70.81;92601.47;5043547;28;20229;-71
2022/08/23 08:22:47;;;;;;;17.80;16.08;;;;;;;22.83;71.27;92581.34;5030006;28;20190;-70
2022/08/23 08:25:13;;;;;;;18.55;16.35;;;;;;;22.52;72.94;92602.03;5029713;28;20228;-70
2022/08/23 08:27:38;;;;;;;18.73;16.70;;;;;;;22.57;72.20;92593.78;5029838;28;20189;-70
2022/08/23 08:30:06;;;;;;;20.30;18.23;;;;;;;22.98;70.38;92604.41;5024751;28;20221;-71
2022/08/23 08:32:31;;;;;;;19.33;17.33;;;;;;;23.19;69.32;92599.44;5025375;28;20195;-70
2022/08/23 08:34:56;;;;;;;18.65;16.80;;;;;;;23.15;71.06;92603.94;5013216;28;20230;-71
2022/08/23 08:37:22;;;;;;;19.13;16.92;;;;;;;23.11;71.04;92595.13;5029805;28;20181;-70
2022/08/23 08:39:47;;;;;;;21.20;18.52;;;;;;;23.66;69.25;92607.03;5028849;28;20257;-71
2022/08/23 08:42:46;;;;;;;19.45;17.50;;;;;;;23.94;68.28;92607.44;5029782;28;20217;-70
2022/08/23 08:45:21;;;;;;;19.48;17.58;;;;;;;23.48;69.42;92606.81;5028971;28;20645;-71
2022/08/23 08:48:01;;;;;;;20.08;17.10;;;;;;;23.55;69.89;92590.91;5030026;28;20193;-71
2022/08/23 08:50:32;;;;;;;19.35;17.33;;;;;;;22.97;70.12;92597.56;5028876;28;20245;-70
2022/08/23 08:53:09;;;;;;;18.95;16.85;;;;;;;23.68;67.43;92594.91;5033599;28;20185;-71
2022/08/23 08:55:55;;;;;;;20.02;17.90;;;;;;;23.34;70.42;92592.47;5032887;28;20224;-71
2022/08/23 08:58:45;;;;;;;20.15;16.35;;;;;;;23.03;70.59;92585.47;5033465;28;20204;-70
2022/08/23 09:01:10;;;;;;;21.13;15.85;;;;;;;23.35;68.42;92554.81;5032931;28;20221;-71
2022/08/23 09:03:36;;;;;;;21.73;16.77;;;;;;;23.40;69.01;92586.50;5032653;28;20161;-71
2022/08/23 09:06:24;;;;;;;19.35;17.33;;;;;;;23.76;66.94;92585.13;5032431;28;20684;-71
2022/08/23 09:09:07;;;;;;;17.27;15.48;;;;;;;23.63;67.92;92575.78;5032680;28;20240;-71
2022/08/23 09:11:44;;;;;;;18.88;17.08;;;;;;;23.78;67.03;92570.28;5031593;28;20212;-71
2022/08/23 09:14:15;;;;;;;18.42;16.58;;;;;;;22.63;69.86;92571.06;5013384;28;20372;-71
2022/08/23 09:16:44;;;;;;;22.73;17.38;;;;;;;23.11;70.15;92560.50;5029908;28;20190;-72
2022/08/23 09:19:10;;;;;;;20.17;15.75;;;;;;;23.54;68.63;92553.94;5032552;28;20239;-72
2022/08/23 09:21:55;;;;;;;18.05;16.10;;;;;;;24.14;65.47;92549.44;5032606;28;20190;-71
2022/08/23 09:24:21;;;;;;;17.20;15.50;;;;;;;24.17;66.31;92541.50;5033005;28;20242;-70
2022/08/23 09:26:47;;;;;;;18.23;16.17;;;;;;;24.17;66.61;92564.72;5032582;28;20185;-70
2022/08/23 09:29:31;;;;;;;17.52;15.55;;;;;;;24.09;65.08;92563.09;5032426;28;20235;-71
2022/08/23 09:32:19;;;;;;;16.52;14.93;;;;;;;24.14;64.34;92568.88;5047769;28;20201;-71
2022/08/23 09:34:44;;;;;;;17.40;15.18;;;;;;;24.19;63.15;92557.88;5024758;28;20236;-71
2022/08/23 09:37:24;;;;;;;18.83;14.82;;;;;;;23.85;62.08;92568.84;5032636;28;20210;-70
2022/08/23 09:40:14;;;;;;;17.17;15.50;;;;;;;23.41;64.65;92566.69;5031794;28;20225;-71
2022/08/23 09:42:40;;;;;;;16.38;14.68;;;;;;;22.95;66.85;92548.44;5032397;28;20185;-72
2022/08/23 09:45:32;;;;;;;17.70;15.90;;;;;;;23.00;69.69;92564.13;5030859;28;20217;-71
2022/08/23 09:47:57;;;;;;;16.98;15.32;;;;;;;23.42;66.36;92573.59;5013175;28;20222;-71
2022/08/23 09:50:35;;;;;;;16.67;14.98;;;;;;;23.59;66.81;92572.31;5037498;28;20227;-71
2022/08/23 09:53:08;;;;;;;16.50;14.90;;;;;;;23.47;65.31;92578.59;5052194;28;20172;-71
2022/08/23 09:55:43;;;;;;;15.10;13.63;;;;;;;23.53;65.09;92566.50;5043789;28;20247;-71
2022/08/23 09:58:39;;;;;;;15.93;14.23;;;;;;;23.50;67.11;92567.22;5032062;28;20275;-71
2022/08/23 10:01:10;;;;;;;14.77;13.48;;;;;;;23.98;62.41;92578.97;5030313;28;20248;-71
2022/08/23 10:03:37;;;;;;;14.93;13.60;;;;;;;22.85;63.38;92559.69;5031418;28;20917;-70
2022/08/23 10:06:03;;;;;;;16.63;14.15;;;;;;;22.99;65.09;92571.31;5043356;28;20177;-71
2022/08/23 10:08:32;;;;;;;18.98;14.35;;;;;;;23.54;63.38;92562.72;5051050;28;20314;-71
2022/08/23 10:11:06;;;;;;;15.88;14.25;;;;;;;23.56;64.93;92555.09;5040195;28;20915;-71
2022/08/23 10:13:32;;;;;;;16.80;13.77;;;;;;;23.87;63.12;92580.69;5031487;28;20244;-70
2022/08/23 10:16:35;;;;;;;14.93;13.52;;;;;;;23.72;64.26;92571.72;5042345;28;20193;-71
2022/08/23 10:19:16;;;;;;;14.43;13.13;;;;;;;24.65;60.38;92566.41;5051074;28;20266;-70
2022/08/23 10:21:42;;;;;;;15.52;13.93;;;;;;;24.21;61.86;92568.19;5050563;28;20197;-69
2022/08/23 10:24:22;;;;;;;15.43;14.10;;;;;;;24.65;62.59;92571.75;5051087;28;20236;-71
2022/08/23 10:29:36;;;;;;;16.75;14.80;;;;;;;24.76;63.46;92570.00;5050964;28;20272;-71
2022/08/23 10:30:04;;;;;;;16.88;15.15;;;;;;;23.98;64.45;92554.19;5032597;28;20230;-71
2022/08/23 10:32:41;;;;;;;16.25;14.68;;;;;;;24.31;64.65;92564.91;5031219;28;20192;-72
2022/08/23 10:35:31;;;;;;;14.82;13.50;;;;;;;24.13;62.72;92556.66;5030533;28;20221;-71
2022/08/23 10:38:41;;;;;;;15.45;13.90;;;;;;;23.29;66.80;92518.94;5031102;28;20194;-70
2022/08/23 10:41:26;;;;;;;15.10;13.70;;;;;;;23.43;67.37;92556.47;5023378;28;20213;-70
2022/08/23 10:44:10;;;;;;;14.68;13.02;;;;;;;23.08;66.37;92539.88;5031480;28;20278;-71
2022/08/23 10:46:44;;;;;;;15.98;14.27;;;;;;;23.06;67.18;92552.03;5028733;28;20186;-71
2022/08/23 10:49:13;;;;;;;14.90;13.55;;;;;;;23.42;67.20;92549.59;5030948;28;20233;-71
2022/08/23 10:51:44;;;;;;;15.45;13.85;;;;;;;23.45;66.81;92542.78;5029893;28;20181;-70
2022/08/23 10:54:15;;;;;;;15.13;13.50;;;;;;;23.42;66.53;92546.94;5030536;28;20305;-70
2022/08/23 10:56:41;;;;;;;14.90;13.38;;;;;;;23.61;67.41;92554.81;5031051;28;20190;-71
2022/08/23 10:59:20;;;;;;;15.20;13.80;;;;;;;23.59;71.99;92556.31;5030129;28;20225;-70
2022/08/23 11:01:57;;;;;;;15.07;13.60;;;;;;;23.29;68.99;92550.91;5029471;28;20208;-70
2022/08/23 11:04:35;;;;;;;15.68;14.15;;;;;;;23.02;70.10;92551.97;5030407;28;20233;-71
2022/08/23 11:07:18;;;;;;;16.15;14.65;;;;;;;23.10;73.46;92556.28;5030310;28;20460;-71
2022/08/23 11:10:05;;;;;;;17.75;16.05;;;;;;;23.57;73.54;92548.66;5030089;28;20296;-70
2022/08/23 11:12:35;;;;;;;16.38;14.68;;;;;;;23.45;77.51;92554.22;5030462;28;20185;-70
2022/08/23 11:15:09;;;;;;;17.42;15.10;;;;;;;24.06;76.71;92553.16;5029442;28;20957;-71
2022/08/23 11:17:49;;;;;;;18.30;16.23;;;;;;;24.08;75.08;92554.31;5030291;28;20196;-72
2022/08/23 11:20:49;;;;;;;16.15;14.55;;;;;;;24.40;71.04;92550.13;5034829;28;20220;-71
2022/08/23 11:23:37;;;;;;;15.07;13.57;;;;;;;24.54;69.00;92549.50;5050404;28;20200;-71
2022/08/23 11:26:06;;;;;;;18.67;15.65;;;;;;;23.64;74.24;92559.41;5044428;28;20236;-71
2022/08/23 11:28:43;;;;;;;18.27;16.38;;;;;;;23.18;75.71;92560.59;5049608;28;20186;-71
2022/08/23 11:31:20;;;;;;;18.60;16.48;;;;;;;23.13;76.76;92558.25;5037280;28;20907;-71
2022/08/23 11:33:51;;;;;;;16.70;15.20;;;;;;;23.35;73.68;92517.50;5029805;28;20324;-73
2022/08/23 11:36:22;;;;;;;15.60;14.20;;;;;;;23.28;74.89;92544.06;5029913;28;20231;-72
2022/08/23 11:38:48;;;;;;;15.95;14.50;;;;;;;23.41;74.00;92542.72;5009988;28;20243;-71